Time;durP1;ratioP1;P1;durP2;ratioP2;P2;SDS_P1;SDS_P2;PMS_P1;PMS_P2;Temp;Humidity;BMP_temperature;BMP_pressure;BME280_temperature;BME280_humidity;BME280_pressure;Samples;Min_cycle;Max_cycle;Signal;HPM_P1;HPM_P2
2022/06/15 00:00:44;;;;;;;6.10;3.00;;;;;;;13.86;64.48;100630.84;130969;1267;109815;-78
2022/06/15 00:03:50;;;;;;;7.10;3.00;;;;;;;13.86;64.51;100629.13;131049;1268;108795;-78
2022/06/15 00:06:56;;;;;;;4.20;2.50;;;;;;;13.86;64.46;100629.66;131230;1267;108014;-78
2022/06/15 00:10:01;;;;;;;5.90;2.50;;;;;;;13.82;64.42;100623.73;130491;1268;107980;-77
2022/06/15 00:13:07;;;;;;;7.80;2.80;;;;;;;13.81;64.54;100625.29;130297;1268;108680;-79
2022/06/15 00:16:14;;;;;;;3.90;2.60;;;;;;;13.74;64.61;100624.15;130244;1267;109184;-78
2022/06/15 00:19:20;;;;;;;5.20;2.60;;;;;;;13.72;64.79;100622.80;130307;1268;109116;-78
2022/06/15 00:22:25;;;;;;;4.50;2.20;;;;;;;13.73;64.68;100621.56;130284;1267;108783;-79
2022/06/15 00:25:30;;;;;;;4.90;2.90;;;;;;;13.77;64.94;100622.69;130329;1268;108863;-78
2022/06/15 00:28:36;;;;;;;5.60;2.70;;;;;;;13.77;64.80;100621.03;130303;1268;108660;-80
2022/06/15 00:31:42;;;;;;;5.10;2.50;;;;;;;13.75;64.86;100625.98;130362;1268;108802;-79
2022/06/15 00:34:49;;;;;;;4.00;2.50;;;;;;;13.78;64.96;100625.92;130313;1268;108773;-79
2022/06/15 00:37:54;;;;;;;4.30;2.30;;;;;;;13.81;64.99;100621.30;130289;1267;108835;-78
2022/06/15 00:41:01;;;;;;;5.10;2.80;;;;;;;13.85;65.07;100619.67;130283;1267;108911;-77
2022/06/15 00:44:32;;;;;;;3.80;2.40;;;;;;;13.89;65.24;100620.33;130328;1268;108721;-79
2022/06/15 00:47:40;;;;;;;3.80;2.60;;;;;;;13.90;65.16;100620.92;130313;1268;108747;-78
2022/06/15 00:50:46;;;;;;;4.50;2.70;;;;;;;13.87;65.19;100622.77;130362;1267;108940;-79
2022/06/15 00:53:52;;;;;;;4.90;2.10;;;;;;;13.84;65.30;100617.94;130331;1268;107625;-78
2022/06/15 00:56:57;;;;;;;3.40;1.90;;;;;;;13.80;65.32;100618.35;130272;1268;108862;-77
2022/06/15 01:00:05;;;;;;;2.90;1.90;;;;;;;13.76;65.39;100618.95;130279;1268;108700;-77
2022/06/15 01:03:13;;;;;;;4.20;2.20;;;;;;;13.70;65.44;100625.86;130292;1268;107764;-79
2022/06/15 01:06:24;;;;;;;5.70;2.60;;;;;;;13.66;65.30;100623.43;130330;1268;108630;-77
2022/06/15 01:09:33;;;;;;;4.40;2.10;;;;;;;13.60;65.45;100620.33;130291;1268;108743;-78
2022/06/15 01:12:48;;;;;;;3.70;2.40;;;;;;;13.52;65.50;100621.18;130284;1267;108718;-79
2022/06/15 01:16:01;;;;;;;6.60;2.50;;;;;;;13.42;65.60;100622.05;130327;1267;108804;-79
2022/06/15 01:19:21;;;;;;;5.80;2.30;;;;;;;13.30;65.70;100623.51;130313;1267;108699;-75
2022/06/15 01:22:52;;;;;;;3.60;2.10;;;;;;;13.18;65.77;100622.40;130210;1268;108725;-75
2022/06/15 01:26:14;;;;;;;4.40;2.20;;;;;;;13.06;65.86;100621.74;130363;1268;108806;-76
2022/06/15 01:29:43;;;;;;;5.70;2.40;;;;;;;12.94;66.05;100623.66;130495;1268;108774;-78
2022/06/15 01:33:00;;;;;;;3.10;2.40;;;;;;;12.83;66.09;100623.06;130434;1268;108845;-78
2022/06/15 01:36:18;;;;;;;3.00;1.70;;;;;;;12.70;66.19;100619.23;131014;1267;108845;-77
2022/06/15 01:39:30;;;;;;;4.60;2.20;;;;;;;12.60;66.22;100619.70;130296;1268;109159;-73
2022/06/15 01:42:39;;;;;;;3.40;1.70;;;;;;;12.53;66.41;100621.73;130304;1268;109161;-74
2022/06/15 01:45:47;;;;;;;8.70;2.30;;;;;;;12.51;66.12;100618.97;130277;1268;108069;-77
2022/06/15 01:48:57;;;;;;;3.40;2.10;;;;;;;12.46;66.23;100616.48;130482;1268;108751;-78
2022/06/15 01:52:04;;;;;;;3.70;2.20;;;;;;;12.38;66.33;100618.83;130325;1268;108810;-77
2022/06/15 01:55:16;;;;;;;3.80;1.80;;;;;;;12.28;66.43;100619.34;130399;1268;108744;-78
2022/06/15 01:58:28;;;;;;;4.00;2.20;;;;;;;12.21;66.37;100623.44;130291;1268;108712;-78
2022/06/15 02:01:41;;;;;;;3.30;2.10;;;;;;;12.13;66.46;100620.60;130296;1268;108947;-77
2022/06/15 02:04:58;;;;;;;4.00;2.10;;;;;;;12.06;66.73;100619.38;130301;1268;107624;-77
2022/06/15 02:08:15;;;;;;;3.30;2.20;;;;;;;11.97;66.69;100623.13;130249;1268;108531;-78
2022/06/15 02:11:30;;;;;;;3.70;2.20;;;;;;;11.88;66.41;100619.29;130287;1268;108741;-76
2022/06/15 02:14:39;;;;;;;3.90;2.00;;;;;;;11.81;66.35;100620.30;130253;1268;108756;-76
2022/06/15 02:17:47;;;;;;;4.40;2.40;;;;;;;11.74;66.64;100618.04;130306;1268;108588;-80
2022/06/15 02:20:57;;;;;;;4.20;2.40;;;;;;;11.67;66.67;100622.31;130346;1267;106900;-80
2022/06/15 02:24:04;;;;;;;4.10;2.20;;;;;;;11.63;66.47;100620.65;130423;1268;109132;-80
2022/06/15 02:27:12;;;;;;;7.50;2.10;;;;;;;11.62;66.65;100624.08;130410;1267;108697;-80
2022/06/15 02:30:28;;;;;;;4.20;2.40;;;;;;;11.63;66.77;100629.38;130420;1267;108861;-80
2022/06/15 02:33:47;;;;;;;3.10;2.10;;;;;;;11.62;66.70;100627.16;130433;1268;108761;-80
2022/06/15 02:36:53;;;;;;;4.50;2.40;;;;;;;11.56;66.73;100626.47;130601;1268;108986;-79
2022/06/15 02:40:00;;;;;;;3.50;2.40;;;;;;;11.54;66.66;100628.98;130351;1268;108686;-75
2022/06/15 02:43:05;;;;;;;3.20;2.30;;;;;;;11.52;66.79;100635.41;130336;1267;108496;-76
2022/06/15 02:46:15;;;;;;;5.90;2.60;;;;;;;11.49;66.90;100637.81;130089;1268;307120;-77
2022/06/15 02:49:20;;;;;;;3.70;2.40;;;;;;;11.48;67.12;100635.95;130327;1268;109071;-79
2022/06/15 02:52:31;;;;;;;3.30;2.50;;;;;;;11.48;66.61;100639.84;130631;1268;109132;-76
2022/06/15 02:55:40;;;;;;;4.00;2.30;;;;;;;11.49;66.85;100640.99;130298;1268;108718;-77
2022/06/15 02:58:52;;;;;;;3.60;1.90;;;;;;;11.50;66.95;100641.86;130534;1268;109066;-77
2022/06/15 03:01:59;;;;;;;3.90;2.30;;;;;;;11.54;67.07;100646.83;130318;1268;108836;-77
2022/06/15 03:05:07;;;;;;;4.40;2.40;;;;;;;11.58;67.20;100650.81;130548;1267;108670;-79
2022/06/15 03:08:12;;;;;;;6.60;2.70;;;;;;;11.65;67.35;100649.14;130451;1268;108778;-80
2022/06/15 03:11:18;;;;;;;4.30;2.60;;;;;;;11.69;67.39;100648.53;130440;1268;108791;-79
2022/06/15 03:14:25;;;;;;;6.80;2.40;;;;;;;11.75;67.47;100650.20;130492;1266;108769;-77
2022/06/15 03:17:32;;;;;;;3.90;2.30;;;;;;;11.83;67.63;100646.60;130357;1268;108846;-79
2022/06/15 03:20:41;;;;;;;4.20;2.80;;;;;;;11.98;67.63;100650.55;130329;1268;108732;-77
2022/06/15 03:23:47;;;;;;;4.00;3.00;;;;;;;12.20;67.63;100652.98;130343;1268;108692;-77
2022/06/15 03:26:53;;;;;;;4.50;2.60;;;;;;;12.51;67.59;100648.46;130325;1268;108888;-77
2022/06/15 03:30:03;;;;;;;3.70;2.30;;;;;;;12.87;67.68;100646.02;130308;1268;108681;-77
2022/06/15 03:33:13;;;;;;;6.40;3.10;;;;;;;13.31;67.55;100651.08;130355;1267;108693;-78
2022/06/15 03:36:19;;;;;;;4.20;2.60;;;;;;;13.76;67.34;100647.83;130329;1268;108656;-77
2022/06/15 03:39:26;;;;;;;3.80;2.70;;;;;;;14.19;67.04;100647.58;130294;1267;108675;-78
2022/06/15 03:42:34;;;;;;;4.60;2.30;;;;;;;14.62;66.95;100650.47;130342;1267;108790;-78
2022/06/15 03:45:42;;;;;;;5.90;2.60;;;;;;;14.99;66.80;100649.60;130232;1268;108657;-80
2022/06/15 03:48:47;;;;;;;5.60;2.60;;;;;;;15.31;66.48;100648.29;130331;1267;108832;-81
2022/06/15 03:51:53;;;;;;;5.00;2.50;;;;;;;15.63;66.24;100646.95;130316;1268;108686;-78
2022/06/15 03:54:58;;;;;;;3.90;2.50;;;;;;;15.95;66.08;100646.52;130284;1268;107830;-78
2022/06/15 03:58:05;;;;;;;5.00;2.30;;;;;;;16.25;65.76;100644.66;130273;1268;108810;-78
2022/06/15 04:01:11;;;;;;;3.90;2.30;;;;;;;16.48;65.58;100639.96;130273;1267;109173;-78
2022/06/15 04:04:17;;;;;;;5.10;2.60;;;;;;;16.66;64.72;100641.62;130376;1267;108799;-78
2022/06/15 04:10:46;;;;;;;3.70;1.90;;;;;;;17.00;63.99;100649.38;130069;1268;108630;-78
2022/06/15 04:13:52;;;;;;;4.30;2.20;;;;;;;17.09;64.54;100647.05;130284;1268;108874;-78
2022/06/15 04:16:58;;;;;;;4.90;2.80;;;;;;;17.11;63.61;100645.17;130288;1267;108799;-81
2022/06/15 04:20:37;;;;;;;4.20;2.10;;;;;;;17.08;64.03;100648.08;130245;1268;108687;-75
2022/06/15 04:23:45;;;;;;;5.40;2.20;;;;;;;17.17;63.79;100653.31;130367;1267;108826;-76
2022/06/15 04:26:52;;;;;;;4.40;2.10;;;;;;;17.28;63.93;100650.67;130217;1268;108774;-77
2022/06/15 04:29:59;;;;;;;5.80;2.30;;;;;;;17.53;63.98;100649.33;130413;1268;108836;-79
2022/06/15 04:33:04;;;;;;;4.70;1.80;;;;;;;17.72;63.38;100649.88;130375;1267;108630;-78
2022/06/15 04:36:15;;;;;;;3.50;1.90;;;;;;;17.89;63.57;100651.16;130343;1267;109055;-76
2022/06/15 04:39:24;;;;;;;4.40;1.90;;;;;;;18.17;63.16;100652.77;130362;1267;108737;-79
2022/06/15 04:42:30;;;;;;;3.50;2.00;;;;;;;18.27;61.19;100649.54;130275;1268;108737;-76
2022/06/15 04:45:38;;;;;;;3.30;1.90;;;;;;;18.25;62.36;100650.23;130359;1267;108783;-80
2022/06/15 04:48:55;;;;;;;4.30;2.10;;;;;;;18.38;61.29;100650.77;130373;1267;108816;-75
2022/06/15 04:52:00;;;;;;;3.60;1.80;;;;;;;17.99;59.21;100660.00;130316;1268;108847;-77
2022/06/15 04:55:07;;;;;;;8.00;2.20;;;;;;;17.77;60.85;100658.57;130369;1267;108644;-82
2022/06/15 04:58:12;;;;;;;3.40;2.00;;;;;;;17.75;61.45;100659.54;130438;1267;107253;-80
2022/06/15 05:01:18;;;;;;;6.40;2.30;;;;;;;17.72;61.54;100664.58;130423;1267;108910;-76
2022/06/15 05:04:25;;;;;;;4.70;2.20;;;;;;;17.79;61.31;100662.41;130373;1267;107793;-80
2022/06/15 05:07:31;;;;;;;6.40;2.00;;;;;;;17.76;60.03;100665.36;130317;1267;108799;-75
2022/06/15 05:10:37;;;;;;;4.90;2.30;;;;;;;17.74;60.94;100668.16;130414;1268;108949;-78
2022/06/15 05:13:44;;;;;;;4.80;2.30;;;;;;;17.64;60.04;100671.45;130340;1268;108946;-77
2022/06/15 05:16:50;;;;;;;3.90;1.90;;;;;;;17.58;60.76;100670.77;130375;1267;109080;-79
2022/06/15 05:20:00;;;;;;;4.50;2.20;;;;;;;17.65;60.41;100673.88;130265;1268;108700;-80
2022/06/15 05:23:07;;;;;;;7.00;2.10;;;;;;;17.68;60.16;100674.74;130448;1268;108955;-81
2022/06/15 05:26:42;;;;;;;4.50;1.70;;;;;;;17.70;60.27;100680.11;130203;1267;109155;-81
2022/06/15 05:29:47;;;;;;;5.40;2.00;;;;;;;17.62;60.18;100682.02;130287;1268;108897;-80
2022/06/15 05:32:56;;;;;;;4.90;2.00;;;;;;;17.43;59.89;100683.64;130452;1268;108735;-81
2022/06/15 05:36:06;;;;;;;5.30;1.70;;;;;;;17.38;60.50;100687.10;130351;1268;108879;-76
2022/06/15 05:39:13;;;;;;;3.70;2.10;;;;;;;17.45;60.70;100685.20;130318;1268;108928;-79
2022/06/15 05:42:19;;;;;;;6.80;2.20;;;;;;;17.47;60.07;100682.16;130330;1268;108857;-80
2022/06/15 05:45:30;;;;;;;3.70;1.90;;;;;;;17.37;60.33;100684.71;130358;1268;108728;-79
2022/06/15 05:48:38;;;;;;;4.10;2.00;;;;;;;17.32;59.75;100687.81;130323;1266;108869;-80
2022/06/15 05:51:44;;;;;;;3.50;2.00;;;;;;;17.12;59.74;100690.02;130272;1268;109013;-78
2022/06/15 05:54:49;;;;;;;6.10;1.90;;;;;;;17.04;60.04;100689.71;130262;1268;108890;-79
2022/06/15 05:57:54;;;;;;;4.90;2.00;;;;;;;17.09;60.13;100690.18;130350;1267;108658;-78
2022/06/15 06:01:09;;;;;;;6.10;2.00;;;;;;;17.16;60.36;100687.39;130357;1268;107480;-80
2022/06/15 06:04:17;;;;;;;4.70;1.90;;;;;;;17.27;60.25;100684.09;130419;1267;108740;-82
2022/06/15 06:07:23;;;;;;;6.50;2.20;;;;;;;17.40;60.21;100683.40;130547;1268;108523;-81
2022/06/15 06:10:28;;;;;;;4.10;1.80;;;;;;;17.42;59.85;100687.46;130520;1268;108760;-80
2022/06/15 06:13:33;;;;;;;3.80;1.80;;;;;;;17.36;59.52;100687.02;130470;1268;108844;-80
2022/06/15 06:16:38;;;;;;;4.10;1.90;;;;;;;17.40;60.24;100685.43;130465;1267;109804;-75
2022/06/15 06:19:44;;;;;;;3.50;1.80;;;;;;;17.52;60.09;100690.02;130297;1268;108680;-74
2022/06/15 06:22:49;;;;;;;3.10;1.90;;;;;;;17.64;60.24;100688.04;130328;1267;108913;-77
2022/06/15 06:25:55;;;;;;;4.80;1.70;;;;;;;17.79;59.81;100691.56;130346;1268;107235;-76
2022/06/15 06:29:01;;;;;;;5.30;1.90;;;;;;;17.71;57.99;100693.84;130356;1267;108957;-77
2022/06/15 06:32:08;;;;;;;3.50;1.80;;;;;;;17.63;58.51;100692.95;130360;1267;108724;-77
2022/06/15 06:35:13;;;;;;;5.90;2.20;;;;;;;17.73;58.26;100692.58;130369;1267;108718;-77
2022/06/15 06:38:18;;;;;;;4.30;1.90;;;;;;;17.80;58.68;100697.97;130333;1267;108652;-73
2022/06/15 06:41:26;;;;;;;4.70;2.10;;;;;;;17.94;58.83;100697.20;130344;1267;108685;-73
2022/06/15 06:44:32;;;;;;;4.00;1.80;;;;;;;18.13;58.42;100697.46;130387;1268;108953;-76
2022/06/15 06:47:37;;;;;;;5.60;1.80;;;;;;;18.47;57.87;100696.20;130359;1267;108784;-79
2022/06/15 06:50:43;;;;;;;5.10;1.80;;;;;;;18.48;57.03;100693.13;130507;1267;108818;-77
2022/06/15 06:53:49;;;;;;;4.30;2.00;;;;;;;18.31;57.34;100693.10;130442;1268;108936;-76
2022/06/15 06:56:54;;;;;;;4.90;1.80;;;;;;;18.37;57.48;100692.20;130378;1268;108868;-74
2022/06/15 06:59:59;;;;;;;3.70;1.50;;;;;;;18.44;56.94;100695.34;130332;1268;108860;-80
2022/06/15 07:03:06;;;;;;;8.90;2.90;;;;;;;18.48;57.71;100688.64;130338;1268;108933;-74
2022/06/15 07:06:12;;;;;;;8.30;2.00;;;;;;;18.72;57.73;100689.30;130437;1268;108882;-76
2022/06/15 07:09:17;;;;;;;4.30;1.60;;;;;;;18.67;56.06;100691.05;130349;1268;108782;-74
2022/06/15 07:12:22;;;;;;;3.10;1.50;;;;;;;18.68;57.18;100686.06;130294;1268;109049;-73
2022/06/15 07:15:27;;;;;;;3.10;1.40;;;;;;;18.79;55.14;100690.00;130357;1267;108781;-75
2022/06/15 07:18:33;;;;;;;4.40;1.60;;;;;;;18.83;56.94;100690.99;130328;1267;107484;-75
2022/06/15 07:21:40;;;;;;;4.00;1.60;;;;;;;18.93;56.42;100692.15;130330;1268;108842;-75
2022/06/15 07:24:46;;;;;;;3.40;1.50;;;;;;;18.82;55.83;100692.44;130473;1267;108850;-76
2022/06/15 07:27:52;;;;;;;3.00;1.60;;;;;;;18.50;55.41;100694.97;130451;1268;107550;-75
2022/06/15 07:30:57;;;;;;;4.20;1.50;;;;;;;18.25;55.39;100693.33;130285;1268;108733;-75
2022/06/15 07:34:03;;;;;;;4.90;1.70;;;;;;;18.28;56.35;100691.20;130358;1267;108691;-75
2022/06/15 07:37:10;;;;;;;5.80;2.20;;;;;;;18.43;56.24;100689.93;130436;1268;107765;-75
2022/06/15 07:40:16;;;;;;;4.60;1.70;;;;;;;18.60;56.39;100689.65;130302;1268;108673;-75
2022/06/15 07:43:22;;;;;;;5.30;2.20;;;;;;;18.78;55.90;100687.19;130296;1268;108601;-76
2022/06/15 07:46:27;;;;;;;4.00;1.70;;;;;;;18.72;56.03;100680.85;130465;1267;107642;-76
2022/06/15 07:53:14;;;;;;;3.40;1.50;;;;;;;18.60;56.10;100682.51;129994;1271;108968;-75
2022/06/15 07:56:19;;;;;;;4.60;1.60;;;;;;;18.57;55.38;100681.73;130109;1271;107860;-76
2022/06/15 07:59:25;;;;;;;5.30;1.80;;;;;;;18.49;56.08;100679.67;130321;1267;106887;-76
2022/06/15 08:02:31;;;;;;;2.90;1.40;;;;;;;18.73;56.01;100680.62;130458;1268;108670;-75
2022/06/15 08:05:40;;;;;;;3.00;1.30;;;;;;;18.79;55.71;100687.25;130369;1267;108715;-74
2022/06/15 08:08:46;;;;;;;5.80;1.70;;;;;;;18.65;55.82;100685.17;130375;1267;107702;-73
2022/06/15 08:15:14;;;;;;;2.30;1.30;;;;;;;18.53;55.58;100686.16;130358;1267;108715;-76
2022/06/15 08:18:24;;;;;;;2.80;1.30;;;;;;;18.57;55.39;100687.84;130357;1268;108887;-76
2022/06/15 08:21:32;;;;;;;3.50;1.50;;;;;;;18.59;55.30;100680.67;130338;1267;108817;-75
2022/06/15 08:24:39;;;;;;;2.80;1.30;;;;;;;18.93;55.62;100684.29;130352;1267;108703;-75
2022/06/15 08:27:45;;;;;;;2.60;1.50;;;;;;;19.16;55.29;100682.27;130430;1268;108639;-77
2022/06/15 08:30:51;;;;;;;4.50;1.60;;;;;;;19.34;53.78;100677.45;130324;1268;108768;-77
2022/06/15 08:33:56;;;;;;;3.70;1.70;;;;;;;19.44;54.42;100675.72;130321;1267;108931;-76
2022/06/15 08:37:02;;;;;;;3.50;1.50;;;;;;;19.43;54.43;100677.37;130438;1267;108839;-76
2022/06/15 08:40:10;;;;;;;4.30;1.60;;;;;;;19.44;54.07;100674.80;130324;1267;108861;-76
2022/06/15 08:43:24;;;;;;;3.20;1.30;;;;;;;19.37;53.85;100678.43;130379;1268;108819;-75
2022/06/15 08:46:41;;;;;;;3.50;1.50;;;;;;;19.17;54.06;100681.23;130306;1267;108681;-75
2022/06/15 08:49:56;;;;;;;2.60;1.50;;;;;;;19.17;54.50;100686.06;130331;1267;108639;-76
2022/06/15 08:53:09;;;;;;;3.40;1.70;;;;;;;19.27;54.53;100684.16;130317;1268;108718;-76
2022/06/15 08:56:20;;;;;;;4.20;1.50;;;;;;;19.35;53.49;100680.91;130404;1267;108591;-77
2022/06/15 08:59:33;;;;;;;2.70;1.40;;;;;;;19.38;53.79;100681.02;130342;1267;108619;-76
2022/06/15 09:02:49;;;;;;;3.90;1.60;;;;;;;19.31;53.56;100677.31;130332;1268;108934;-75
2022/06/15 09:06:04;;;;;;;2.80;1.70;;;;;;;19.34;53.87;100676.91;130408;1267;108774;-76
2022/06/15 09:09:24;;;;;;;4.40;1.50;;;;;;;19.38;53.89;100673.81;130320;1268;108877;-76
2022/06/15 09:12:53;;;;;;;3.30;1.30;;;;;;;19.43;53.98;100678.04;130381;1267;108842;-77
2022/06/15 09:16:21;;;;;;;3.50;1.70;;;;;;;19.39;54.20;100680.52;130413;1267;108866;-77
2022/06/15 09:19:31;;;;;;;3.90;1.40;;;;;;;19.18;53.92;100688.73;130306;1267;108656;-75
2022/06/15 09:22:40;;;;;;;3.10;1.40;;;;;;;19.03;53.96;100684.27;130378;1267;107671;-75
2022/06/15 09:25:50;;;;;;;3.30;1.40;;;;;;;19.06;53.83;100684.98;130476;1267;108614;-75
2022/06/15 09:29:01;;;;;;;3.90;1.20;;;;;;;19.40;53.45;100675.06;130385;1268;108800;-76
2022/06/15 09:32:14;;;;;;;4.90;1.30;;;;;;;19.72;53.65;100669.55;130352;1268;108783;-76
2022/06/15 09:35:27;;;;;;;3.10;1.50;;;;;;;20.07;53.77;100676.28;130431;1267;108598;-76
2022/06/15 09:38:38;;;;;;;2.90;1.40;;;;;;;20.03;53.12;100684.82;130336;1268;108696;-75
2022/06/15 09:41:49;;;;;;;2.50;1.40;;;;;;;20.15;53.88;100685.05;130505;1267;108825;-76
2022/06/15 09:45:07;;;;;;;2.00;1.20;;;;;;;20.44;53.37;100680.92;130484;1267;109089;-75
2022/06/15 09:48:21;;;;;;;2.50;1.40;;;;;;;20.68;53.12;100675.48;130300;1268;108923;-76
2022/06/15 09:51:34;;;;;;;3.50;1.50;;;;;;;20.59;51.99;100682.90;130355;1268;108871;-75
2022/06/15 09:54:52;;;;;;;3.00;1.50;;;;;;;20.29;52.99;100688.16;130381;1268;108772;-76
2022/06/15 09:57:59;;;;;;;4.00;1.90;;;;;;;19.87;51.90;100697.05;130290;1268;108869;-76
2022/06/15 10:01:09;;;;;;;1.90;1.50;;;;;;;19.49;53.22;100698.80;130367;1268;108634;-76
2022/06/15 10:04:20;;;;;;;4.90;2.20;;;;;;;19.19;53.44;100707.30;130350;1267;107654;-76
2022/06/15 10:07:29;;;;;;;3.60;2.00;;;;;;;18.90;53.82;100711.93;130420;1268;108753;-76
2022/06/15 10:10:40;;;;;;;4.30;2.10;;;;;;;18.74;54.28;100710.35;130372;1268;108863;-75
2022/06/15 10:13:46;;;;;;;4.30;2.10;;;;;;;18.71;54.59;100710.25;130389;1268;108837;-76
2022/06/15 10:16:58;;;;;;;3.40;2.20;;;;;;;18.67;54.60;100709.27;130377;1268;108851;-76
2022/06/15 10:20:04;;;;;;;4.60;2.30;;;;;;;18.69;54.69;100707.27;130532;1268;107591;-75
2022/06/15 10:23:29;;;;;;;3.10;1.90;;;;;;;18.70;54.99;100706.00;130406;1267;108816;-76
2022/06/15 10:26:38;;;;;;;4.30;2.20;;;;;;;18.90;55.18;100703.48;130376;1268;108805;-75
2022/06/15 10:29:45;;;;;;;3.80;2.10;;;;;;;19.07;54.64;100700.56;130393;1268;109226;-75
2022/06/15 10:33:16;;;;;;;3.60;2.00;;;;;;;19.15;54.27;100694.33;130499;1267;108787;-75
2022/06/15 10:36:29;;;;;;;3.80;1.70;;;;;;;19.41;54.70;100692.77;130480;1268;108058;-75
2022/06/15 10:39:40;;;;;;;3.50;1.80;;;;;;;19.75;54.23;100691.60;130457;1268;107724;-76
2022/06/15 10:42:53;;;;;;;3.00;1.60;;;;;;;19.98;54.40;100687.14;130465;1268;108738;-75
2022/06/15 10:46:01;;;;;;;2.70;1.50;;;;;;;20.34;54.28;100683.42;130449;1268;108668;-76
2022/06/15 10:49:10;;;;;;;3.20;1.50;;;;;;;20.84;54.33;100675.06;130379;1268;108884;-76
2022/06/15 10:52:24;;;;;;;2.70;1.70;;;;;;;21.26;53.68;100670.54;130351;1268;108429;-76
2022/06/15 11:02:29;;;;;;;3.90;1.70;;;;;;;21.21;52.96;100668.30;130370;1267;108747;-76
2022/06/15 11:05:34;;;;;;;3.20;1.50;;;;;;;21.19;53.48;100667.26;130489;1268;108683;-76
2022/06/15 11:08:45;;;;;;;2.10;1.20;;;;;;;21.35;53.12;100667.96;130374;1268;109040;-76
2022/06/15 11:11:51;;;;;;;3.10;1.40;;;;;;;21.51;52.68;100666.48;130446;1268;108649;-76
2022/06/15 11:15:00;;;;;;;3.10;1.50;;;;;;;21.55;52.53;100667.12;130334;1268;107727;-77
2022/06/15 11:18:06;;;;;;;3.60;1.40;;;;;;;21.51;52.32;100662.34;130364;1268;108672;-76
2022/06/15 11:21:16;;;;;;;2.20;1.40;;;;;;;21.43;52.59;100670.00;130292;1268;108766;-76
2022/06/15 11:24:34;;;;;;;2.00;1.30;;;;;;;21.29;52.17;100670.58;130370;1268;108664;-76
2022/06/15 11:27:46;;;;;;;4.00;1.30;;;;;;;21.07;52.09;100665.12;130355;1268;107830;-75
2022/06/15 11:30:59;;;;;;;2.40;1.10;;;;;;;20.86;51.83;100668.42;130393;1268;108735;-76
2022/06/15 11:34:12;;;;;;;2.20;1.10;;;;;;;20.68;52.43;100665.98;130374;1268;108615;-76
2022/06/15 11:37:25;;;;;;;2.40;1.20;;;;;;;20.68;52.31;100662.81;130323;1267;107447;-76
2022/06/15 11:40:39;;;;;;;2.10;1.20;;;;;;;20.59;52.33;100666.45;130430;1268;108948;-76
2022/06/15 11:43:47;;;;;;;2.20;1.20;;;;;;;20.55;51.76;100668.42;130342;1268;109263;-76
2022/06/15 11:47:06;;;;;;;1.00;0.80;;;;;;;20.51;52.26;100667.04;130404;1268;108253;-75
2022/06/15 11:50:22;;;;;;;3.20;1.20;;;;;;;20.70;52.38;100667.90;130355;1268;108338;-75
2022/06/15 11:53:37;;;;;;;1.80;1.00;;;;;;;20.97;52.06;100667.45;130357;1268;108663;-75
2022/06/15 11:56:52;;;;;;;3.60;1.20;;;;;;;21.16;52.10;100663.73;130383;1268;108719;-76
2022/06/15 12:00:11;;;;;;;3.20;1.30;;;;;;;21.35;52.23;100665.84;130384;1268;108850;-77
2022/06/15 12:03:35;;;;;;;3.40;1.10;;;;;;;21.36;51.47;100656.20;130402;1268;108692;-76
2022/06/15 12:06:54;;;;;;;2.30;1.10;;;;;;;21.22;50.82;100654.19;130458;1268;108653;-76
2022/06/15 12:10:08;;;;;;;2.50;1.20;;;;;;;21.19;50.80;100654.19;130377;1268;107798;-77
2022/06/15 12:13:28;;;;;;;1.60;1.10;;;;;;;21.06;50.63;100657.11;130307;1268;108848;-77
2022/06/15 12:16:39;;;;;;;2.70;1.40;;;;;;;21.25;51.51;100657.52;130304;1267;108836;-77
2022/06/15 12:19:54;;;;;;;3.80;1.30;;;;;;;21.35;50.84;100658.36;130383;1268;108916;-77
2022/06/15 12:23:07;;;;;;;1.70;1.20;;;;;;;21.33;50.72;100662.27;130345;1267;108732;-77
2022/06/15 12:26:25;;;;;;;1.70;1.20;;;;;;;21.19;50.45;100659.84;130331;1268;109072;-77
2022/06/15 12:29:42;;;;;;;2.30;1.20;;;;;;;21.08;50.41;100655.30;130347;1268;109183;-77
2022/06/15 12:33:00;;;;;;;2.40;1.30;;;;;;;21.01;50.30;100660.30;130418;1267;107822;-77
2022/06/15 12:36:13;;;;;;;2.40;1.20;;;;;;;20.93;50.14;100654.77;130311;1268;108800;-76
2022/06/15 12:39:24;;;;;;;2.00;1.10;;;;;;;21.05;51.07;100642.59;130419;1268;107632;-77
2022/06/15 12:42:30;;;;;;;1.50;1.00;;;;;;;21.35;50.92;100642.45;130390;1268;108797;-76
2022/06/15 12:45:40;;;;;;;2.10;1.10;;;;;;;21.34;50.34;100634.39;130388;1268;108892;-77
2022/06/15 12:49:01;;;;;;;3.50;1.30;;;;;;;21.23;49.73;100638.31;130370;1267;108863;-76
2022/06/15 12:52:15;;;;;;;2.20;1.30;;;;;;;20.96;49.18;100633.63;130362;1268;108767;-77
2022/06/15 12:55:29;;;;;;;2.30;1.20;;;;;;;20.80;50.22;100630.66;130430;1268;108823;-76
2022/06/15 12:58:42;;;;;;;3.40;1.10;;;;;;;20.80;50.56;100637.55;130413;1268;108849;-77
2022/06/15 13:01:52;;;;;;;1.80;1.00;;;;;;;20.92;50.55;100637.06;130366;1268;108867;-76
2022/06/15 13:05:09;;;;;;;1.90;1.10;;;;;;;20.95;50.46;100634.23;130351;1267;109548;-77
2022/06/15 13:08:24;;;;;;;1.90;1.20;;;;;;;21.01;50.05;100633.04;130393;1268;108670;-76
2022/06/15 13:11:31;;;;;;;1.70;1.00;;;;;;;21.04;49.45;100633.59;130447;1268;108731;-77
2022/06/15 13:14:53;;;;;;;2.80;1.20;;;;;;;20.92;49.19;100637.90;130425;1267;108719;-76
2022/06/15 13:18:11;;;;;;;1.60;0.90;;;;;;;20.83;49.49;100632.79;130416;1267;107756;-76
2022/06/15 13:21:21;;;;;;;2.60;1.10;;;;;;;20.85;49.41;100638.38;130372;1268;108768;-76
2022/06/15 13:24:27;;;;;;;1.10;0.90;;;;;;;20.89;49.20;100639.13;130379;1267;108740;-77
2022/06/15 13:27:35;;;;;;;1.50;1.00;;;;;;;21.12;49.70;100626.50;130433;1268;97427;-77
2022/06/15 13:30:58;;;;;;;2.10;1.10;;;;;;;21.28;49.42;100630.96;130369;1268;108693;-76
2022/06/15 13:34:08;;;;;;;3.50;1.10;;;;;;;21.33;49.87;100629.73;130370;1268;108644;-77
2022/06/15 13:37:24;;;;;;;2.60;1.10;;;;;;;21.46;49.78;100626.85;130407;1268;109037;-76
2022/06/15 13:41:06;;;;;;;1.90;1.00;;;;;;;21.74;49.61;100631.94;130392;1267;108925;-76
2022/06/15 13:44:19;;;;;;;2.10;1.30;;;;;;;21.94;49.01;100625.67;130278;1268;108782;-77
2022/06/15 13:47:30;;;;;;;3.20;1.00;;;;;;;21.89;48.70;100621.95;130433;1268;108204;-77
2022/06/15 13:50:49;;;;;;;1.60;1.00;;;;;;;22.05;49.46;100623.02;130426;1268;108748;-76
2022/06/15 13:54:01;;;;;;;2.20;1.00;;;;;;;22.14;48.69;100616.80;130381;1268;108809;-77
2022/06/15 13:57:22;;;;;;;3.00;1.10;;;;;;;22.12;48.35;100622.88;130406;1268;108146;-76
2022/06/15 14:00:39;;;;;;;1.40;1.00;;;;;;;22.07;48.78;100621.54;130436;1268;107826;-77
2022/06/15 14:04:00;;;;;;;2.50;1.20;;;;;;;22.23;48.86;100612.80;130497;1268;108826;-77
2022/06/15 14:07:19;;;;;;;1.70;1.00;;;;;;;22.23;47.84;100614.69;130391;1268;108967;-76
2022/06/15 14:10:40;;;;;;;2.10;1.30;;;;;;;22.19;47.79;100610.11;130407;1268;108963;-76
2022/06/15 14:14:10;;;;;;;4.40;1.10;;;;;;;22.30;47.60;100607.45;130426;1268;108776;-77
2022/06/15 14:17:52;;;;;;;2.00;0.80;;;;;;;22.25;46.93;100605.23;130523;1268;108866;-77
2022/06/15 14:20:57;;;;;;;1.80;1.00;;;;;;;22.29;47.22;100601.38;130363;1268;108862;-78
2022/06/15 14:24:19;;;;;;;1.20;0.80;;;;;;;22.32;47.81;100602.30;130336;1268;107405;-76
2022/06/15 14:27:30;;;;;;;2.70;1.00;;;;;;;22.48;47.21;100604.75;130364;1268;108798;-77
2022/06/15 14:30:36;;;;;;;2.10;0.90;;;;;;;22.48;47.52;100601.45;130389;1267;108984;-76
2022/06/15 14:33:41;;;;;;;2.60;1.20;;;;;;;22.56;47.24;100599.52;130456;1268;108789;-75
2022/06/15 14:36:57;;;;;;;2.70;1.10;;;;;;;22.63;46.75;100600.93;130322;1268;106828;-75
2022/06/15 14:40:03;;;;;;;2.40;1.10;;;;;;;22.46;46.60;100598.13;130399;1268;108820;-75
2022/06/15 14:43:10;;;;;;;2.50;1.40;;;;;;;22.44;47.27;100593.25;130361;1268;108895;-77